createdAt,value
2023-04-02T00:07:38.116Z,4.2
2023-04-02T00:15:46.859Z,1.4
2023-04-02T00:17:48.281Z,2.9
2023-04-02T00:21:50.978Z,3.7
2023-04-02T00:23:52.427Z,4.2
2023-04-02T00:30:00.140Z,2
2023-04-02T00:32:01.519Z,1.9
2023-04-02T00:34:02.827Z,2.5
2023-04-02T00:36:04.276Z,4.7
2023-04-02T00:40:07.140Z,4.9
2023-04-02T00:42:08.465Z,2.2
2023-04-02T00:46:14.523Z,1.3
2023-04-02T00:48:15.876Z,3.3
2023-04-02T00:49:18.184Z,1.5
2023-04-02T00:51:19.518Z,0.6
2023-04-02T00:53:20.881Z,1.9
2023-04-02T00:59:28.222Z,2.9
2023-04-02T01:01:29.625Z,5.5
2023-04-02T01:03:31.171Z,3.7
2023-04-02T01:07:33.638Z,3.8
2023-04-02T01:13:41.032Z,4.2
2023-04-02T01:15:42.421Z,3.5
2023-04-02T01:17:43.738Z,0.3
2023-04-02T01:19:45.107Z,2.4
2023-04-02T01:21:46.441Z,3.2
2023-04-02T01:23:47.808Z,1.1
2023-04-02T01:25:52.587Z,2.4
2023-04-02T01:33:57.976Z,3.3
2023-04-02T01:35:59.362Z,3.9
2023-04-02T01:38:00.678Z,0.7
2023-04-02T01:40:05.342Z,5.5
2023-04-02T01:42:06.722Z,2.4
2023-04-02T01:44:08.119Z,5.5
2023-04-02T01:48:32.396Z,2.6
2023-04-02T01:50:33.504Z,2.3
2023-04-02T01:52:38.166Z,2.4
2023-04-02T01:54:39.492Z,0.3
2023-04-02T01:56:41.365Z,4
2023-04-02T01:58:42.695Z,2
2023-04-02T02:00:44.063Z,1.2
2023-04-02T02:02:45.455Z,1.8
2023-04-02T02:04:46.764Z,1.5
2023-04-02T02:06:51.499Z,2.8
2023-04-02T02:08:52.827Z,4.1
2023-04-02T02:12:55.573Z,3.6
2023-04-02T02:14:56.880Z,6.1
2023-04-02T02:16:58.250Z,1.8
2023-04-02T02:18:59.632Z,4.2
2023-04-02T02:21:04.314Z,5.5
2023-04-02T02:23:05.677Z,3.1
2023-04-02T02:25:07.019Z,7.2
2023-04-02T02:27:08.339Z,2.8
2023-04-02T02:29:09.684Z,6.1
2023-04-02T02:31:11.021Z,3.6
2023-04-02T02:35:17.030Z,7.5
2023-04-02T02:37:18.373Z,6.1
2023-04-02T02:40:22.048Z,3.5
2023-04-02T02:42:23.385Z,8.9
2023-04-02T02:46:26.230Z,5
2023-04-02T02:50:32.057Z,4.6
2023-04-02T02:54:34.737Z,3.9
2023-04-02T02:56:36.077Z,9.3
2023-04-02T02:58:37.400Z,4.2
2023-04-02T03:00:38.757Z,3.3
2023-04-02T03:02:43.473Z,9.8
2023-04-02T03:04:44.736Z,7.1
2023-04-02T03:06:46.107Z,5.9
2023-04-02T03:08:47.551Z,5.5
2023-04-02T03:10:48.771Z,6
2023-04-02T03:12:50.110Z,7
2023-04-02T03:14:51.440Z,5.8
2023-04-02T03:16:56.072Z,5.4
2023-04-02T03:20:58.754Z,4.1
2023-04-02T03:23:00.122Z,4.3
2023-04-02T03:25:01.481Z,3.3
2023-04-02T03:27:02.930Z,4.7
2023-04-02T03:33:10.339Z,5.3
2023-04-02T03:35:11.661Z,6.1
2023-04-02T03:48:26.946Z,2
2023-04-02T03:52:29.670Z,2.9
2023-04-02T03:58:36.962Z,2.9
2023-04-02T04:00:38.301Z,2.8
2023-04-02T04:02:39.655Z,2.8
2023-04-02T04:04:40.966Z,1.5
2023-04-02T04:10:45.017Z,3.7
2023-04-02T04:12:49.746Z,4.4
2023-04-02T04:14:51.053Z,3.2
2023-04-02T04:16:52.474Z,1
2023-04-02T04:18:53.557Z,2.5
2023-04-02T04:20:55.023Z,2.4
2023-04-02T04:22:56.402Z,1.4
2023-04-02T04:24:58.577Z,0.5
2023-04-02T04:27:03.222Z,1.4
2023-04-02T04:29:04.552Z,1.5
2023-04-02T04:32:08.205Z,1.2
2023-04-02T04:34:09.519Z,3.2
2023-04-02T04:36:10.899Z,2.5
2023-04-02T04:38:12.215Z,2.2
2023-04-02T04:40:16.825Z,1.3
2023-04-02T04:42:18.169Z,1.5
2023-04-02T04:44:19.465Z,2.4
2023-04-02T04:46:20.886Z,1.1
2023-04-02T04:48:22.101Z,1.6
2023-04-02T04:50:23.486Z,0.6
2023-04-02T04:52:24.882Z,1.2
2023-04-02T04:56:30.848Z,2.1
2023-04-02T04:58:32.181Z,1.1
2023-04-02T05:00:33.485Z,1.2
2023-04-02T05:02:34.841Z,3.1
2023-04-02T05:06:37.450Z,0.6
2023-04-02T05:10:43.550Z,0.4
2023-04-02T05:12:44.939Z,1.8
2023-04-02T05:14:46.266Z,0.2
2023-04-02T05:18:49.013Z,1.5
2023-04-02T05:24:56.295Z,2
2023-04-02T05:29:20.422Z,1.3
2023-04-02T05:31:21.797Z,1
2023-04-02T05:33:23.119Z,1.6
2023-04-02T05:35:27.849Z,0.3
2023-04-02T05:37:29.281Z,0.8
2023-04-02T05:39:30.679Z,1.3
2023-04-02T05:51:42.310Z,1.9
2023-04-02T05:53:43.714Z,1.5
2023-04-02T05:55:45.029Z,1.5
2023-04-02T05:57:54.830Z,1.3
2023-04-02T05:59:47.742Z,2.5
2023-04-02T06:05:55.066Z,1.5
2023-04-02T06:07:56.363Z,1.1
2023-04-02T06:09:57.671Z,1.7
2023-04-02T06:11:58.994Z,2.2
2023-04-02T06:14:00.420Z,2.7
2023-04-02T06:16:01.749Z,1.7
2023-04-02T06:20:07.959Z,1.6
2023-04-02T06:22:09.246Z,2.3
2023-04-02T06:23:11.532Z,2.8
2023-04-02T06:25:12.863Z,2
2023-04-02T06:39:25.788Z,2.8
2023-04-02T06:43:28.397Z,1.2
2023-04-02T06:47:34.594Z,2.5
2023-04-02T06:49:35.952Z,1.2
2023-04-02T06:51:37.892Z,1.4
2023-04-02T06:53:39.171Z,2.4
2023-04-02T06:55:40.500Z,1.6
2023-04-02T06:57:43.000Z,0.9
2023-04-02T06:59:46.694Z,1.7
2023-04-02T07:01:48.096Z,2.7
2023-04-02T07:03:49.478Z,1.6
2023-04-02T07:05:50.745Z,1.7
2023-04-02T07:07:52.147Z,1.6
2023-04-02T07:09:53.561Z,3
2023-04-02T07:16:00.982Z,2.3
2023-04-02T07:21:06.084Z,1.4
2023-04-02T07:25:08.801Z,0.8
2023-04-02T07:27:13.565Z,0.5
2023-04-02T07:29:14.879Z,1
2023-04-02T07:31:16.358Z,3.5
2023-04-02T07:37:20.386Z,2.2
2023-04-02T07:47:30.456Z,0.9
2023-04-02T07:53:34.437Z,1.1
2023-04-02T07:55:39.237Z,2.1
2023-04-02T07:57:40.544Z,1
2023-04-02T07:59:41.943Z,2.5
2023-04-02T08:01:43.432Z,1.3
2023-04-02T08:03:44.763Z,0.8
2023-04-02T08:05:46.055Z,1.1
2023-04-02T08:07:47.371Z,1.6
2023-04-02T08:09:51.976Z,1.4
2023-04-02T08:13:54.702Z,1.5
2023-04-02T08:14:57.024Z,1.3
2023-04-02T08:23:05.763Z,2.9
2023-04-02T08:25:07.152Z,0.8
2023-04-02T08:29:09.755Z,1.1
2023-04-02T08:31:11.133Z,0.3
2023-04-02T08:33:12.459Z,0.9
2023-04-02T08:35:13.866Z,1.2
2023-04-02T08:39:19.968Z,1.6
2023-04-02T08:51:31.184Z,1.6
2023-04-02T08:57:35.217Z,2.5
2023-04-02T09:01:38.154Z,1.2
2023-04-02T09:05:43.811Z,1.4
2023-04-02T09:07:45.143Z,1.3
2023-04-02T09:09:46.455Z,1.5
2023-04-02T09:12:09.146Z,1.7
2023-04-02T09:16:11.876Z,1.2
2023-04-02T09:20:17.932Z,0.4
2023-04-02T09:22:20.045Z,0.5
2023-04-02T09:24:20.663Z,1
2023-04-02T09:26:22.035Z,0.8
2023-04-02T09:28:23.364Z,0.8
2023-04-02T09:30:24.700Z,0.4
2023-04-02T09:32:29.900Z,2
2023-04-02T09:34:30.774Z,1.2
2023-04-02T09:36:33.795Z,0.9
2023-04-02T09:38:34.992Z,0.6
2023-04-02T09:40:36.374Z,1.4
2023-04-02T09:42:37.702Z,1.8
2023-04-02T09:44:39.028Z,1.3
2023-04-02T09:46:43.720Z,1.7
2023-04-02T09:48:45.014Z,1.8
2023-04-02T09:50:46.367Z,0.9
2023-04-02T09:52:47.699Z,0.5
2023-04-02T09:54:49.086Z,1.7
2023-04-02T09:56:50.513Z,1.7
2023-04-02T09:58:51.841Z,1.3
2023-04-02T10:00:56.496Z,2.3
2023-04-02T10:04:59.172Z,1.7
2023-04-02T10:06:01.503Z,1.1
2023-04-02T10:10:04.228Z,1
2023-04-02T10:12:05.598Z,1
2023-04-02T10:14:10.272Z,1.4
2023-04-02T10:16:11.649Z,0.8
2023-04-02T10:18:12.978Z,1.5
2023-04-02T10:20:14.317Z,2.1
2023-04-02T10:22:15.674Z,1.5
2023-04-02T10:24:17.002Z,1.8
2023-04-02T10:26:18.364Z,1.3
2023-04-02T10:28:23.028Z,2.7
2023-04-02T10:30:24.363Z,1
2023-04-02T10:32:25.848Z,1.4
2023-04-02T10:34:27.108Z,1.1
2023-04-02T10:38:29.861Z,0.6
2023-04-02T10:40:31.181Z,1
2023-04-02T10:42:35.857Z,0.2
2023-04-02T10:44:37.235Z,0.7
2023-04-02T10:52:42.682Z,0.8
2023-04-02T10:54:44.031Z,1.4
2023-04-02T10:56:51.430Z,1.8
2023-04-02T10:58:50.101Z,1.2
2023-04-02T11:00:51.552Z,1.1
2023-04-02T11:01:53.922Z,2
2023-04-02T11:05:57.131Z,1.9
2023-04-02T11:10:02.642Z,1.2
2023-04-02T11:12:04.006Z,0.7
2023-04-02T11:14:05.369Z,1.5
2023-04-02T11:16:06.798Z,1.6
2023-04-02T11:18:08.148Z,0.8
2023-04-02T11:20:09.501Z,2.7
2023-04-02T11:22:10.867Z,1.9
2023-04-02T11:26:16.930Z,1.1
2023-04-02T11:28:18.294Z,0.7
2023-04-02T11:30:19.701Z,0.8
2023-04-02T11:32:21.087Z,0.6
2023-04-02T11:36:23.879Z,1.6
2023-04-02T11:38:28.529Z,1.1
2023-04-02T11:40:29.896Z,0.3
2023-04-02T11:42:31.286Z,1.6
2023-04-02T11:44:32.640Z,1.4
2023-04-02T11:46:34.105Z,2.6
2023-04-02T11:48:35.612Z,1.2
2023-04-02T11:52:41.474Z,0.4
2023-04-02T11:54:42.830Z,0.9
2023-04-02T11:56:44.217Z,0.2
2023-04-02T11:57:46.545Z,1.2
2023-04-02T12:01:49.345Z,1.3
2023-04-02T12:03:50.671Z,1.4
2023-04-02T12:05:55.320Z,1.6
2023-04-02T12:07:56.769Z,1
2023-04-02T12:09:58.097Z,0.6
2023-04-02T12:11:59.494Z,0.5
2023-04-02T12:16:02.280Z,0.4
2023-04-02T12:18:03.718Z,1.5
2023-04-02T12:20:08.297Z,0.4
2023-04-02T12:24:11.073Z,0.5
2023-04-02T12:26:12.437Z,1.6
2023-04-02T12:28:13.847Z,0.5
2023-04-02T12:30:15.242Z,0.7
2023-04-02T12:32:16.599Z,1.4
2023-04-02T12:34:21.298Z,0.2
2023-04-02T12:38:24.070Z,1.2
2023-04-02T12:40:25.451Z,0.6
2023-04-02T12:42:26.841Z,0.7
2023-04-02T12:46:29.629Z,1.8
2023-04-02T12:48:34.271Z,1
2023-04-02T12:50:35.944Z,1.1
2023-04-02T12:52:37.017Z,1
2023-04-02T13:03:08.578Z,0.5
2023-04-02T13:05:09.944Z,1.4
2023-04-02T13:11:14.115Z,1.4
2023-04-02T13:13:15.509Z,1.3
2023-04-02T13:15:20.126Z,0.5
2023-04-02T13:17:21.531Z,0.5
2023-04-02T13:19:23.392Z,1.1
2023-04-02T13:21:24.695Z,0.2
2023-04-02T13:23:25.674Z,0.1
2023-04-02T13:29:33.164Z,1.8
2023-04-02T13:35:37.372Z,1.2
2023-04-02T13:37:38.811Z,1.7
2023-04-02T13:39:40.156Z,0.8
2023-04-02T13:41:41.532Z,1.3
2023-04-02T13:43:46.250Z,1
2023-04-02T13:45:47.682Z,0.5
2023-04-02T13:47:49.011Z,0.3
2023-04-02T13:48:51.341Z,1.2
2023-04-02T13:52:54.166Z,0.7
2023-04-02T13:54:55.564Z,1.1
2023-04-02T13:57:00.284Z,0.8
2023-04-02T14:01:03.119Z,3.3
2023-04-02T14:05:05.867Z,1.3
2023-04-02T14:09:08.606Z,0.6
2023-04-02T14:11:13.295Z,1.4
2023-04-02T14:13:14.710Z,0.7
2023-04-02T14:15:16.121Z,1.7
2023-04-02T14:17:17.514Z,1.6
2023-04-02T14:25:26.389Z,1.3
2023-04-02T14:37:34.801Z,1.2
2023-04-02T14:44:44.613Z,0.3
2023-04-02T14:46:46.111Z,1.5
2023-04-02T14:48:47.416Z,1.1
2023-04-02T14:50:48.782Z,1.4
2023-04-02T14:52:53.492Z,1.1
2023-04-02T14:54:54.893Z,0.9
2023-04-02T14:56:56.324Z,0.8
2023-04-02T14:58:57.706Z,1.2
2023-04-02T15:00:59.101Z,0.8
2023-04-02T15:05:01.941Z,0.9
2023-04-02T15:17:13.646Z,1.2
2023-04-02T15:19:15.028Z,1
2023-04-02T15:21:19.688Z,0.8
2023-04-02T15:23:21.099Z,1.1
2023-04-02T15:25:22.510Z,1.1
2023-04-02T15:33:29.602Z,1.3
2023-04-02T15:40:39.456Z,0.6
2023-04-02T15:42:40.897Z,0.7
2023-04-02T15:44:42.282Z,1.6
2023-04-02T15:46:43.654Z,1.6
2023-04-02T15:48:48.394Z,0.3
2023-04-02T16:05:02.887Z,0.9
2023-04-02T16:37:53.663Z,1.2
2023-04-02T16:39:55.160Z,2.3
2023-04-02T16:41:56.459Z,1
2023-04-02T16:44:01.130Z,1.4
2023-04-02T16:46:02.581Z,1.2
2023-04-02T16:48:03.959Z,1
2023-04-02T16:50:05.412Z,1.8
2023-04-02T16:56:09.550Z,0.9
2023-04-02T16:58:14.241Z,1.1
2023-04-02T17:00:15.657Z,1.3
2023-04-02T17:02:17.019Z,0.7
2023-04-02T17:06:19.835Z,1.4
2023-04-02T17:08:21.245Z,0.8
2023-04-02T17:10:22.617Z,0.5
2023-04-02T17:12:27.360Z,1.1
2023-04-02T17:14:29.704Z,1.6
2023-04-02T17:16:30.172Z,1.2
2023-04-02T17:18:31.513Z,0.9
2023-04-02T17:20:32.968Z,1.5
2023-04-02T17:22:34.320Z,1.3
2023-04-02T17:30:43.234Z,1.1
2023-04-02T17:31:45.577Z,1.3
2023-04-02T17:39:54.413Z,0.9
2023-04-02T17:41:55.798Z,1.3
2023-04-02T17:45:58.627Z,1.5
2023-04-02T17:48:00.045Z,1.2
2023-04-02T17:52:02.795Z,2.1
2023-04-02T17:54:07.459Z,1.7
2023-04-02T17:56:08.857Z,0.9
2023-04-02T17:58:10.219Z,1.7
2023-04-02T18:02:13.058Z,1.3
2023-04-02T18:04:14.440Z,1.6
2023-04-02T18:06:15.805Z,1.4
2023-04-02T18:10:21.868Z,2.5
2023-04-02T18:12:23.250Z,2
2023-04-02T18:16:26.083Z,1.9
2023-04-02T18:22:33.448Z,1.9
2023-04-02T18:24:34.851Z,1.6
2023-04-02T18:27:38.592Z,1.6
2023-04-02T18:29:39.941Z,1.9
2023-04-02T18:31:41.309Z,1.1
2023-04-02T18:33:42.700Z,2.9
2023-04-02T18:43:52.954Z,1
2023-04-02T18:45:54.370Z,1
2023-04-02T18:47:55.727Z,0.9
2023-04-02T18:56:04.538Z,2.6
2023-04-02T19:00:07.224Z,1.1
2023-04-02T19:02:08.624Z,2.1
2023-04-02T19:04:13.309Z,1.6
2023-04-02T19:06:14.662Z,1.6
2023-04-02T19:10:17.412Z,1.7
2023-04-02T19:12:18.799Z,0.7
2023-04-02T19:14:20.162Z,0.5
2023-04-02T19:23:31.361Z,3.1
2023-04-02T19:27:34.109Z,1.6
2023-04-02T19:29:35.590Z,1.3
2023-04-02T19:31:40.230Z,1.4
2023-04-02T19:33:41.602Z,1.3
2023-04-02T19:35:42.985Z,2.1
2023-04-02T19:37:44.327Z,1.2
2023-04-02T20:00:05.904Z,1.5
2023-04-02T20:02:07.252Z,1.3
2023-04-02T20:04:08.718Z,0.7
2023-04-02T20:06:10.117Z,1.2
2023-04-02T20:08:11.476Z,1
2023-04-02T20:10:12.828Z,1.5
2023-04-02T20:12:14.225Z,1.1
2023-04-02T20:18:21.701Z,0.7
2023-04-02T20:20:50.718Z,1.1
2023-04-02T20:24:53.469Z,0.4
2023-04-02T20:26:58.042Z,0.8
2023-04-02T20:28:59.419Z,0.9
2023-04-02T20:31:00.800Z,0.8
2023-04-02T20:35:03.467Z,1.6
2023-04-02T20:45:13.623Z,0.5
2023-04-02T20:51:17.769Z,0.9
2023-04-02T20:53:19.124Z,1.1
2023-04-02T20:55:23.794Z,0.5
2023-04-02T20:57:25.040Z,0.8
2023-04-02T21:03:29.208Z,2
2023-04-02T21:05:30.550Z,0.7
2023-04-02T21:07:31.875Z,0.5
2023-04-02T21:11:37.912Z,0.4
2023-04-02T21:13:39.255Z,1.3
2023-04-02T21:14:41.576Z,0.8
2023-04-02T21:16:44.584Z,1.2
2023-04-02T21:18:45.828Z,1.2
2023-04-02T21:20:47.203Z,0.4
2023-04-02T21:22:51.817Z,0.7
2023-04-02T21:24:53.183Z,1.5
2023-04-02T21:26:54.532Z,2
2023-04-02T21:28:55.878Z,0.7
2023-04-02T21:53:18.822Z,0.8
2023-04-02T21:55:20.174Z,1.6
2023-04-02T21:57:21.519Z,1.4
2023-04-02T21:59:22.807Z,0.6
2023-04-02T22:01:27.664Z,1.2
2023-04-02T22:03:31.585Z,2
2023-04-02T22:05:30.292Z,1.2
2023-04-02T22:07:31.661Z,0.6
2023-04-02T22:09:33.075Z,0.7
2023-04-02T22:10:35.683Z,1.6
2023-04-02T22:12:36.800Z,0.8
2023-04-02T22:18:44.151Z,0.7
2023-04-02T22:20:45.567Z,1.8
2023-04-02T22:22:46.979Z,0.3
2023-04-02T22:24:48.387Z,0.5
2023-04-02T22:28:51.103Z,1.5
2023-04-02T22:32:57.352Z,0.7
2023-04-02T22:41:02.921Z,0.7
2023-04-02T22:43:04.336Z,1.1
2023-04-02T22:47:10.328Z,1
2023-04-02T22:51:12.987Z,1.1
2023-04-02T22:55:15.793Z,0.9
2023-04-02T22:59:18.607Z,0.7
2023-04-02T23:01:23.348Z,0.9
2023-04-02T23:03:24.734Z,1.2
2023-04-02T23:05:26.210Z,1.5
2023-04-02T23:06:28.538Z,0.8
2023-04-02T23:10:31.330Z,1.6
2023-04-02T23:12:32.716Z,0.4
2023-04-02T23:20:41.486Z,1.2
2023-04-02T23:22:42.887Z,0.4
2023-04-02T23:24:44.287Z,1
2023-04-02T23:28:50.451Z,0.5
2023-04-02T23:30:51.859Z,0.7
2023-04-02T23:32:53.333Z,0.9
2023-04-02T23:57:16.823Z,1.3
2023-04-02T23:59:18.178Z,0.7
